createdAt,value
2018-05-29T00:02:03.188Z,20.50
2018-05-29T00:04:31.640Z,20.50
2018-05-29T00:07:00.598Z,20.50
2018-05-29T00:09:29.072Z,20.50
2018-05-29T00:11:57.517Z,20.50
2018-05-29T00:14:25.966Z,20.50
2018-05-29T00:16:54.420Z,20.40
2018-05-29T00:19:22.862Z,20.40
2018-05-29T00:21:51.307Z,20.50
2018-05-29T00:24:19.755Z,20.40
2018-05-29T00:26:48.211Z,20.40
2018-05-29T00:29:16.663Z,20.30
2018-05-29T00:31:45.683Z,20.30
2018-05-29T00:34:14.129Z,20.30
2018-05-29T00:36:42.587Z,20.30
2018-05-29T00:39:11.044Z,20.30
2018-05-29T00:41:39.532Z,20.30
2018-05-29T00:44:07.985Z,20.20
2018-05-29T00:46:36.428Z,20.20
2018-05-29T00:49:05.799Z,20.20
2018-05-29T00:51:34.492Z,20.10
2018-05-29T00:54:02.947Z,20.10
2018-05-29T00:56:31.599Z,20.00
2018-05-29T00:59:00.380Z,20.00
2018-05-29T01:01:28.823Z,19.90
2018-05-29T01:03:57.390Z,19.80
2018-05-29T01:06:25.837Z,19.80
2018-05-29T01:08:54.494Z,19.80
2018-05-29T01:11:23.494Z,19.70
2018-05-29T01:13:51.930Z,19.70
2018-05-29T01:16:20.390Z,19.70
2018-05-29T01:18:48.841Z,19.70
2018-05-29T01:21:17.292Z,19.70
2018-05-29T01:23:45.748Z,19.60
2018-05-29T01:26:14.195Z,19.60
2018-05-29T01:28:42.643Z,19.60
2018-05-29T01:31:11.544Z,19.60
2018-05-29T01:33:39.995Z,19.60
2018-05-29T01:36:09.312Z,19.50
2018-05-29T01:38:37.818Z,19.50
2018-05-29T01:41:07.980Z,19.30
2018-05-29T01:43:36.424Z,19.40
2018-05-29T01:46:04.879Z,19.30
2018-05-29T01:48:33.361Z,19.30
2018-05-29T01:51:01.810Z,19.30
2018-05-29T01:53:31.026Z,19.30
2018-05-29T01:55:59.892Z,19.30
2018-05-29T01:58:29.112Z,19.20
2018-05-29T02:00:57.571Z,19.20
2018-05-29T02:03:26.018Z,19.20
2018-05-29T02:05:54.469Z,19.20
2018-05-29T02:08:22.915Z,19.20
2018-05-29T02:10:51.355Z,19.20
2018-05-29T02:13:19.800Z,19.10
2018-05-29T02:15:48.248Z,19.10
2018-05-29T02:18:16.707Z,19.10
2018-05-29T02:20:45.395Z,19.10
2018-05-29T02:23:13.840Z,19.00
2018-05-29T02:25:42.294Z,19.00
2018-05-29T02:28:10.743Z,19.00
2018-05-29T02:30:39.196Z,18.90
2018-05-29T02:33:07.650Z,18.80
2018-05-29T02:35:36.103Z,18.80
2018-05-29T02:38:04.552Z,18.80
2018-05-29T02:40:33.004Z,18.70
2018-05-29T02:43:01.467Z,18.70
2018-05-29T02:45:30.675Z,18.60
2018-05-29T02:47:59.123Z,18.60
2018-05-29T02:50:27.571Z,18.60
2018-05-29T02:52:56.023Z,18.50
2018-05-29T02:55:24.479Z,18.40
2018-05-29T02:57:53.387Z,18.40
2018-05-29T03:00:22.604Z,18.40
2018-05-29T03:02:51.968Z,18.30
2018-05-29T03:05:20.419Z,18.30
2018-05-29T03:07:48.872Z,18.40
2018-05-29T03:10:18.139Z,18.30
2018-05-29T03:12:46.275Z,18.30
2018-05-29T03:15:14.729Z,18.30
2018-05-29T03:17:43.971Z,18.30
2018-05-29T03:20:12.887Z,18.20
2018-05-29T03:22:41.324Z,18.20
2018-05-29T03:25:09.779Z,18.30
2018-05-29T03:27:38.988Z,18.20
2018-05-29T03:30:07.544Z,18.20
2018-05-29T03:32:36.915Z,18.20
2018-05-29T03:35:05.383Z,18.30
2018-05-29T03:37:33.827Z,18.30
2018-05-29T03:40:02.291Z,18.30
2018-05-29T03:42:31.514Z,18.20
2018-05-29T03:44:59.985Z,18.20
2018-05-29T03:47:28.427Z,18.30
2018-05-29T03:49:56.900Z,18.30
2018-05-29T03:52:25.348Z,18.40
2018-05-29T03:54:53.822Z,18.50
2018-05-29T03:57:22.280Z,18.40
2018-05-29T03:59:51.387Z,18.50
2018-05-29T04:02:19.832Z,18.50
2018-05-29T04:04:48.304Z,18.60
2018-05-29T04:07:16.432Z,18.60
2018-05-29T04:09:44.900Z,18.60
2018-05-29T04:12:13.352Z,18.70
2018-05-29T04:14:41.819Z,18.70
2018-05-29T04:17:10.847Z,18.80
2018-05-29T04:19:39.752Z,18.80
2018-05-29T04:22:08.200Z,18.90
2018-05-29T04:24:36.663Z,18.90
2018-05-29T04:27:05.117Z,19.00
2018-05-29T04:29:33.583Z,19.00
2018-05-29T04:32:02.159Z,19.00
2018-05-29T04:34:30.642Z,19.00
2018-05-29T04:36:58.788Z,19.10
2018-05-29T04:39:27.244Z,19.10
2018-05-29T04:41:57.025Z,19.20
2018-05-29T04:44:25.478Z,19.20
2018-05-29T04:46:53.905Z,19.30
2018-05-29T04:49:22.899Z,19.30
2018-05-29T04:51:51.359Z,19.40
2018-05-29T04:54:19.836Z,19.50
2018-05-29T04:56:49.061Z,19.60
2018-05-29T04:59:19.160Z,19.60
2018-05-29T05:01:47.687Z,19.70
2018-05-29T05:04:16.139Z,19.80
2018-05-29T05:06:44.608Z,19.90
2018-05-29T05:09:13.051Z,20.10
2018-05-29T05:11:41.512Z,20.10
2018-05-29T05:14:09.975Z,20.20
2018-05-29T05:16:39.063Z,20.30
2018-05-29T05:19:07.514Z,20.40
2018-05-29T05:21:35.975Z,20.40
2018-05-29T05:24:04.436Z,20.50
2018-05-29T05:26:33.527Z,20.60
2018-05-29T05:29:01.976Z,20.70
2018-05-29T05:31:30.440Z,20.80
2018-05-29T05:33:59.489Z,20.90
2018-05-29T05:36:28.225Z,21.00
2018-05-29T05:38:56.775Z,21.10
2018-05-29T05:41:26.136Z,21.20
2018-05-29T05:43:54.586Z,21.30
2018-05-29T05:46:23.860Z,21.40
2018-05-29T05:48:52.309Z,21.50
2018-05-29T05:51:20.755Z,21.60
2018-05-29T05:53:49.223Z,21.70
2018-05-29T05:56:17.672Z,21.90
2018-05-29T05:58:46.133Z,22.20
2018-05-29T06:01:14.575Z,22.50
2018-05-29T06:03:43.035Z,22.80
2018-05-29T06:06:11.480Z,23.10
2018-05-29T06:08:39.937Z,23.60
2018-05-29T06:11:08.391Z,24.30
2018-05-29T06:13:36.888Z,25.50
2018-05-29T06:16:05.343Z,28.40
2018-05-29T06:18:33.791Z,31.10
2018-05-29T06:21:02.252Z,32.40
2018-05-29T06:23:30.722Z,34.00
2018-05-29T06:25:59.180Z,34.50
2018-05-29T06:28:28.580Z,36.00
2018-05-29T06:30:57.143Z,35.60
2018-05-29T06:33:25.608Z,35.80
2018-05-29T06:35:54.679Z,36.50
2018-05-29T06:38:23.462Z,37.00
2018-05-29T06:40:52.398Z,37.20
2018-05-29T06:43:21.423Z,37.70
2018-05-29T06:45:50.235Z,37.30
2018-05-29T06:48:19.432Z,37.10
2018-05-29T06:50:49.424Z,36.80
2018-05-29T06:53:18.450Z,36.70
2018-05-29T06:55:47.478Z,37.40
2018-05-29T06:58:17.430Z,37.40
2018-05-29T07:00:46.472Z,37.50
2018-05-29T07:03:15.491Z,36.70
2018-05-29T07:05:44.523Z,37.00
2018-05-29T07:08:13.548Z,36.70
2018-05-29T07:10:45.570Z,35.70
2018-05-29T07:13:18.135Z,34.80
2018-05-29T07:15:47.588Z,34.60
2018-05-29T07:18:17.831Z,33.90
2018-05-29T07:20:48.491Z,34.10
2018-05-29T07:23:18.147Z,33.60
2018-05-29T07:25:46.902Z,32.70
2018-05-29T07:28:15.903Z,32.10
2018-05-29T07:30:45.867Z,31.80
2018-05-29T07:33:14.914Z,31.70
2018-05-29T07:35:44.695Z,31.00
2018-05-29T07:38:13.723Z,31.00
2018-05-29T07:40:43.114Z,31.10
2018-05-29T07:43:12.601Z,31.00
2018-05-29T07:45:41.611Z,30.80
2018-05-29T07:48:10.692Z,30.70
2018-05-29T07:50:40.135Z,31.10
2018-05-29T07:53:09.155Z,31.80
2018-05-29T07:55:39.088Z,32.80
2018-05-29T07:58:09.555Z,34.30
2018-05-29T08:00:38.574Z,34.90
2018-05-29T08:03:08.011Z,36.00
2018-05-29T08:05:37.018Z,36.40
2018-05-29T08:08:06.783Z,37.10
2018-05-29T08:10:35.867Z,37.00
2018-05-29T08:13:04.290Z,36.90
2018-05-29T08:15:33.322Z,37.50
2018-05-29T08:18:03.112Z,36.90
2018-05-29T08:20:32.121Z,36.50
2018-05-29T08:23:01.168Z,36.40
2018-05-29T08:25:30.204Z,36.70
2018-05-29T08:28:01.074Z,36.90
2018-05-29T08:30:31.006Z,36.70
2018-05-29T08:33:01.749Z,36.80
2018-05-29T08:35:32.395Z,36.70
2018-05-29T08:38:02.124Z,36.50
2018-05-29T08:40:32.471Z,36.60
2018-05-29T08:43:02.387Z,36.50
2018-05-29T08:45:31.461Z,36.20
2018-05-29T08:48:00.860Z,35.70
2018-05-29T08:50:31.114Z,35.20
2018-05-29T08:53:00.655Z,35.10
2018-05-29T08:55:29.907Z,34.70
2018-05-29T08:58:00.700Z,34.40
2018-05-29T09:00:30.582Z,33.40
2018-05-29T09:03:00.547Z,33.40
2018-05-29T09:05:29.234Z,33.00
2018-05-29T09:07:58.242Z,33.30
2018-05-29T09:10:27.249Z,32.90
2018-05-29T09:12:56.246Z,32.90
2018-05-29T09:15:25.242Z,32.50
2018-05-29T09:17:54.243Z,32.30
2018-05-29T09:20:24.024Z,32.40
2018-05-29T09:22:53.024Z,32.40
2018-05-29T09:25:22.023Z,32.40
2018-05-29T09:27:51.024Z,32.30
2018-05-29T09:30:20.023Z,32.30
2018-05-29T09:32:49.043Z,32.40
2018-05-29T09:35:18.052Z,32.50
2018-05-29T09:37:47.063Z,32.50
2018-05-29T09:40:16.843Z,32.30
2018-05-29T09:42:46.019Z,32.30
2018-05-29T09:45:15.035Z,32.20
2018-05-29T09:47:44.608Z,32.20
2018-05-29T09:50:13.044Z,32.20
2018-05-29T09:52:41.477Z,32.30
2018-05-29T09:55:09.935Z,32.20
2018-05-29T09:57:38.386Z,32.20
2018-05-29T10:00:06.831Z,32.10
2018-05-29T10:02:35.307Z,32.10
2018-05-29T10:05:03.411Z,31.90
2018-05-29T10:07:31.856Z,31.90
2018-05-29T10:10:00.626Z,31.90
2018-05-29T10:12:29.879Z,32.00
2018-05-29T10:14:58.364Z,32.00
2018-05-29T10:17:26.844Z,31.90
2018-05-29T10:19:55.298Z,31.80
2018-05-29T10:22:24.971Z,31.80
2018-05-29T10:24:53.419Z,31.80
2018-05-29T10:27:21.903Z,31.70
2018-05-29T10:29:50.347Z,31.80
2018-05-29T10:32:18.792Z,31.90
2018-05-29T10:34:48.271Z,31.90
2018-05-29T10:37:16.712Z,31.70
2018-05-29T10:39:45.155Z,31.60
2018-05-29T10:42:13.616Z,31.50
2018-05-29T10:44:42.063Z,31.40
2018-05-29T10:47:10.538Z,31.40
2018-05-29T10:49:38.983Z,31.60
2018-05-29T10:52:07.492Z,31.70
2018-05-29T10:54:35.939Z,31.80
2018-05-29T10:57:04.379Z,31.80
2018-05-29T10:59:32.829Z,31.60
2018-05-29T11:02:02.044Z,31.60
2018-05-29T11:04:30.493Z,31.60
2018-05-29T11:06:59.010Z,31.60
2018-05-29T11:09:27.594Z,31.70
2018-05-29T11:11:56.036Z,31.60
2018-05-29T11:14:24.489Z,31.50
2018-05-29T11:16:54.144Z,31.50
2018-05-29T11:19:22.592Z,31.30
2018-05-29T11:21:51.038Z,31.40
2018-05-29T11:24:19.487Z,31.50
2018-05-29T11:26:47.930Z,31.50
2018-05-29T11:29:17.603Z,31.50
2018-05-29T11:31:46.463Z,31.50
2018-05-29T11:34:14.907Z,31.50
2018-05-29T11:36:43.034Z,31.50
2018-05-29T11:39:11.540Z,31.50
2018-05-29T11:41:40.911Z,31.70
2018-05-29T11:44:09.355Z,31.50
2018-05-29T11:46:37.800Z,31.60
2018-05-29T11:49:05.911Z,31.40
2018-05-29T11:51:34.352Z,31.40
2018-05-29T11:54:03.651Z,31.50
2018-05-29T11:56:32.088Z,31.50
2018-05-29T11:59:00.559Z,31.60
2018-05-29T12:01:29.015Z,31.50
2018-05-29T12:04:00.821Z,31.60
2018-05-29T12:06:29.278Z,31.60
2018-05-29T12:08:57.724Z,31.40
2018-05-29T12:11:25.505Z,31.50
2018-05-29T12:13:53.944Z,31.40
2018-05-29T12:16:23.160Z,31.50
2018-05-29T12:18:51.599Z,31.50
2018-05-29T12:21:20.052Z,31.40
2018-05-29T12:23:48.496Z,31.20
2018-05-29T12:26:16.983Z,30.70
2018-05-29T12:28:45.454Z,30.60
2018-05-29T12:31:13.947Z,30.80
2018-05-29T12:33:42.456Z,31.10
2018-05-29T12:36:10.907Z,31.20
2018-05-29T12:38:39.392Z,31.20
2018-05-29T12:41:07.883Z,31.00
2018-05-29T12:43:36.344Z,31.00
2018-05-29T12:46:04.824Z,31.00
2018-05-29T12:48:33.119Z,30.90
2018-05-29T12:51:01.610Z,30.90
2018-05-29T12:53:30.387Z,30.70
2018-05-29T12:55:58.835Z,30.50
2018-05-29T12:58:27.691Z,30.60
2018-05-29T13:00:57.837Z,30.40
2018-05-29T13:03:26.005Z,30.40
2018-05-29T13:05:55.396Z,30.30
2018-05-29T13:08:23.853Z,30.20
2018-05-29T13:10:52.332Z,30.30
2018-05-29T13:13:21.199Z,30.30
2018-05-29T13:15:50.619Z,30.20
2018-05-29T13:18:21.067Z,30.10
2018-05-29T13:20:51.053Z,30.10
2018-05-29T13:23:20.943Z,30.10
2018-05-29T13:25:50.957Z,30.30
2018-05-29T13:28:20.791Z,30.40
2018-05-29T13:30:49.298Z,30.60
2018-05-29T13:33:17.749Z,30.50
2018-05-29T13:35:46.191Z,30.50
2018-05-29T13:38:14.640Z,30.50
2018-05-29T13:40:43.083Z,30.50
2018-05-29T13:43:11.523Z,30.40
2018-05-29T13:45:39.971Z,30.40
2018-05-29T13:48:08.424Z,30.40
2018-05-29T13:50:36.870Z,30.30
2018-05-29T13:53:05.008Z,30.20
2018-05-29T13:55:33.458Z,30.10
2018-05-29T13:58:01.563Z,30.20
2018-05-29T14:00:30.016Z,30.10
2018-05-29T14:02:58.467Z,30.00
2018-05-29T14:05:26.911Z,30.00
2018-05-29T14:07:55.432Z,30.00
2018-05-29T14:10:23.876Z,29.80
2018-05-29T14:12:53.086Z,29.80
2018-05-29T14:15:21.527Z,29.70
2018-05-29T14:17:49.973Z,29.80
2018-05-29T14:20:18.431Z,29.90
2018-05-29T14:22:46.877Z,29.90
2018-05-29T14:25:15.311Z,29.90
2018-05-29T14:27:43.764Z,29.80
2018-05-29T14:30:12.212Z,29.70
2018-05-29T14:32:40.660Z,29.60
2018-05-29T14:35:09.107Z,29.60
2018-05-29T14:37:37.559Z,29.50
2018-05-29T14:40:06.022Z,29.40
2018-05-29T14:42:35.232Z,29.20
2018-05-29T14:45:03.969Z,29.20
2018-05-29T14:47:32.413Z,29.10
2018-05-29T14:50:00.867Z,29.00
2018-05-29T14:52:29.319Z,29.00
2018-05-29T14:54:57.754Z,28.90
2018-05-29T14:57:26.200Z,28.80
2018-05-29T14:59:54.638Z,28.70
2018-05-29T15:02:23.078Z,28.60
2018-05-29T15:04:51.514Z,28.60
2018-05-29T15:07:19.952Z,28.50
2018-05-29T15:09:48.400Z,28.30
2018-05-29T15:12:16.843Z,28.30
2018-05-29T15:14:45.290Z,28.20
2018-05-29T15:17:13.758Z,28.10
2018-05-29T15:19:43.928Z,28.00
2018-05-29T15:22:12.390Z,27.90
2018-05-29T15:24:40.843Z,27.90
2018-05-29T15:27:09.487Z,27.80
2018-05-29T15:29:38.210Z,27.80
2018-05-29T15:32:06.658Z,27.70
2018-05-29T15:34:34.769Z,27.60
2018-05-29T15:37:03.220Z,27.60
2018-05-29T15:39:31.665Z,27.50
2018-05-29T15:42:00.428Z,27.40
2018-05-29T15:44:29.543Z,27.40
2018-05-29T15:46:57.995Z,27.40
2018-05-29T15:49:26.435Z,27.30
2018-05-29T15:51:54.583Z,27.30
2018-05-29T15:54:23.026Z,27.30
2018-05-29T15:56:51.138Z,27.30
2018-05-29T15:59:19.242Z,27.30
2018-05-29T16:01:47.010Z,27.30
2018-05-29T16:04:15.455Z,27.20
2018-05-29T16:06:44.137Z,27.20
2018-05-29T16:09:12.890Z,27.10
2018-05-29T16:11:41.358Z,27.10
2018-05-29T16:14:10.337Z,27.00
2018-05-29T16:16:38.796Z,27.00
2018-05-29T16:19:07.243Z,26.90
2018-05-29T16:21:35.691Z,26.80
2018-05-29T16:24:03.804Z,26.90
2018-05-29T16:26:33.097Z,26.80
2018-05-29T16:29:01.674Z,26.80
2018-05-29T16:31:30.114Z,26.90
2018-05-29T16:33:58.564Z,26.80
2018-05-29T16:36:27.694Z,26.60
2018-05-29T16:38:56.690Z,26.40
2018-05-29T16:41:25.970Z,26.30
2018-05-29T16:43:54.242Z,26.10
2018-05-29T16:46:23.466Z,25.60
2018-05-29T16:48:51.902Z,25.60
2018-05-29T16:51:20.694Z,25.40
2018-05-29T16:53:49.915Z,25.30
2018-05-29T16:56:18.730Z,25.30
2018-05-29T16:58:47.170Z,25.30
2018-05-29T17:01:16.367Z,25.20
2018-05-29T17:03:45.263Z,25.10
2018-05-29T17:06:13.708Z,25.00
2018-05-29T17:08:42.497Z,25.00
2018-05-29T17:11:11.056Z,24.90
2018-05-29T17:13:39.491Z,24.80
2018-05-29T17:16:08.382Z,24.60
2018-05-29T17:18:36.852Z,24.30
2018-05-29T17:21:05.325Z,24.00
2018-05-29T17:23:35.483Z,23.90
2018-05-29T17:26:05.131Z,23.80
2018-05-29T17:28:33.591Z,23.70
2018-05-29T17:31:02.163Z,23.60
2018-05-29T17:33:30.638Z,23.60
2018-05-29T17:35:59.088Z,23.50
2018-05-29T17:38:27.563Z,23.50
2018-05-29T17:40:56.011Z,23.50
2018-05-29T17:43:24.454Z,23.50
2018-05-29T17:45:52.902Z,23.50
2018-05-29T17:48:21.468Z,23.50
2018-05-29T17:50:49.927Z,23.50
2018-05-29T17:53:18.375Z,23.40
2018-05-29T17:55:46.815Z,23.40
2018-05-29T17:58:15.258Z,23.50
2018-05-29T18:00:43.605Z,23.50
2018-05-29T18:03:12.102Z,23.50
2018-05-29T18:05:40.751Z,23.50
2018-05-29T18:08:09.216Z,23.40
2018-05-29T18:10:38.620Z,23.30
2018-05-29T18:13:06.783Z,23.20
2018-05-29T18:15:35.236Z,23.20
2018-05-29T18:18:03.687Z,23.20
2018-05-29T18:20:32.193Z,23.10
2018-05-29T18:23:01.387Z,23.10
2018-05-29T18:25:29.847Z,22.90
2018-05-29T18:27:58.299Z,22.90
2018-05-29T18:30:26.739Z,22.80
2018-05-29T18:32:55.179Z,22.70
2018-05-29T18:35:24.179Z,22.60
2018-05-29T18:37:52.834Z,22.40
2018-05-29T18:40:21.440Z,22.40
2018-05-29T18:42:49.943Z,22.20
2018-05-29T18:45:18.514Z,22.20
2018-05-29T18:47:49.596Z,22.20
2018-05-29T18:50:19.919Z,22.20
2018-05-29T19:01:26.013Z,22.10
2018-05-29T19:03:54.659Z,22.00
2018-05-29T19:06:23.313Z,22.00
2018-05-29T19:08:51.808Z,22.10
2018-05-29T19:11:20.248Z,22.10
2018-05-29T19:13:48.704Z,22.10
2018-05-29T19:16:17.571Z,22.20
2018-05-29T19:18:46.026Z,22.10
2018-05-29T19:21:15.256Z,22.10
2018-05-29T19:23:44.093Z,22.10
2018-05-29T19:26:12.584Z,22.10
2018-05-29T19:28:41.056Z,22.00
2018-05-29T19:31:09.503Z,22.00
2018-05-29T19:33:37.955Z,21.90
2018-05-29T19:36:07.222Z,21.90
2018-05-29T19:38:35.671Z,21.90
2018-05-29T19:41:04.130Z,21.90
2018-05-29T19:43:32.598Z,21.80
2018-05-29T19:46:04.221Z,21.70
2018-05-29T19:48:32.671Z,21.70
2018-05-29T19:51:06.971Z,21.80
2018-05-29T19:53:34.775Z,21.70
2018-05-29T19:56:03.419Z,21.70
2018-05-29T19:58:32.210Z,21.70
2018-05-29T20:01:04.564Z,21.70
2018-05-29T20:03:33.882Z,21.60
2018-05-29T20:06:02.623Z,21.60
2018-05-29T20:08:32.676Z,21.60
2018-05-29T20:11:02.952Z,21.60
2018-05-29T20:13:32.057Z,21.60
2018-05-29T20:16:06.053Z,21.50
2018-05-29T20:18:36.502Z,21.50
2018-05-29T20:21:06.675Z,21.50
2018-05-29T20:23:36.731Z,21.50
2018-05-29T20:26:08.930Z,21.50
2018-05-29T20:28:37.584Z,21.40
2018-05-29T20:31:06.925Z,21.40
2018-05-29T20:33:35.400Z,21.40
2018-05-29T20:36:04.859Z,21.30
2018-05-29T20:38:34.056Z,21.30
2018-05-29T20:41:02.877Z,21.20
2018-05-29T20:43:31.688Z,21.20
2018-05-29T20:46:02.735Z,21.20
2018-05-29T20:48:32.129Z,21.20
2018-05-29T20:51:01.505Z,21.20
2018-05-29T20:53:29.749Z,21.20
2018-05-29T20:55:59.515Z,21.10
2018-05-29T20:58:28.810Z,21.10
2018-05-29T21:00:59.820Z,21.00
2018-05-29T21:03:28.515Z,21.00
2018-05-29T21:06:03.165Z,21.00
2018-05-29T21:08:31.927Z,21.00
2018-05-29T21:11:01.086Z,21.00
2018-05-29T21:13:31.150Z,20.90
2018-05-29T21:15:59.944Z,20.90
2018-05-29T21:18:28.629Z,20.90
2018-05-29T21:20:57.185Z,20.90
2018-05-29T21:23:26.953Z,20.90
2018-05-29T21:25:56.975Z,20.80
2018-05-29T21:28:25.869Z,20.80
2018-05-29T21:30:55.065Z,20.80
2018-05-29T21:33:24.313Z,20.70
2018-05-29T21:35:52.756Z,20.70
2018-05-29T21:38:21.436Z,20.70
2018-05-29T21:40:50.861Z,20.70
2018-05-29T21:43:20.500Z,20.60
2018-05-29T21:45:50.775Z,20.50
2018-05-29T21:48:19.372Z,20.40
2018-05-29T21:50:48.727Z,20.40
2018-05-29T21:53:17.209Z,20.30
2018-05-29T21:55:45.772Z,20.30
2018-05-29T21:58:15.300Z,20.30
2018-05-29T22:00:44.176Z,20.20
2018-05-29T22:03:12.854Z,20.20
2018-05-29T22:05:41.403Z,20.20
2018-05-29T22:08:10.818Z,20.20
2018-05-29T22:10:41.089Z,20.30
2018-05-29T22:13:09.670Z,20.30
2018-05-29T22:15:38.291Z,20.50
2018-05-29T22:18:07.833Z,20.50
2018-05-29T22:20:36.558Z,20.60
2018-05-29T22:23:06.820Z,20.60
2018-05-29T22:25:35.333Z,20.70
2018-05-29T22:28:03.826Z,20.70
2018-05-29T22:30:32.504Z,20.80
2018-05-29T22:33:04.327Z,20.80
2018-05-29T22:35:33.194Z,20.80
2018-05-29T22:38:01.843Z,20.90
2018-05-29T22:40:31.751Z,20.80
2018-05-29T22:43:01.864Z,20.80
2018-05-29T22:45:32.028Z,20.80
2018-05-29T22:48:01.600Z,20.80
2018-05-29T22:50:31.216Z,20.80
2018-05-29T22:53:00.199Z,20.70
2018-05-29T22:55:28.653Z,20.80
2018-05-29T22:57:57.137Z,20.80
2018-05-29T23:00:26.350Z,20.70
2018-05-29T23:02:56.319Z,20.70
2018-05-29T23:05:25.638Z,20.70
2018-05-29T23:07:54.083Z,20.50
2018-05-29T23:10:24.150Z,20.40
2018-05-29T23:12:52.852Z,20.40
2018-05-29T23:15:22.507Z,20.40
2018-05-29T23:17:50.692Z,20.40
2018-05-29T23:20:19.134Z,20.40
2018-05-29T23:22:48.662Z,20.30
2018-05-29T23:25:18.163Z,20.30
2018-05-29T23:27:46.706Z,20.30
2018-05-29T23:30:15.389Z,20.30
2018-05-29T23:32:43.676Z,20.20
2018-05-29T23:35:12.128Z,20.20
2018-05-29T23:37:40.843Z,20.20
2018-05-29T23:40:09.632Z,20.10
2018-05-29T23:42:38.071Z,20.10
2018-05-29T23:45:06.527Z,20.10
2018-05-29T23:47:34.979Z,20.10
2018-05-29T23:50:06.264Z,20.10
2018-05-29T23:52:34.731Z,20.10
2018-05-29T23:55:03.187Z,20.00
2018-05-29T23:57:31.654Z,20.10
